createdAt,value
2018-11-11T00:01:13.763Z,43.53
2018-11-11T00:03:42.024Z,38.97
2018-11-11T00:06:10.616Z,47.17
2018-11-11T00:08:39.272Z,43.10
2018-11-11T00:11:07.743Z,44.57
2018-11-11T00:13:36.378Z,47.25
2018-11-11T00:16:05.781Z,46.93
2018-11-11T00:18:34.128Z,35.80
2018-11-11T00:21:02.544Z,41.23
2018-11-11T00:23:31.158Z,47.87
2018-11-11T00:25:59.448Z,45.30
2018-11-11T00:28:29.589Z,38.30
2018-11-11T00:30:58.109Z,47.63
2018-11-11T00:33:26.868Z,46.63
2018-11-11T00:35:55.416Z,53.13
2018-11-11T00:38:24.094Z,52.03
2018-11-11T00:40:52.885Z,46.37
2018-11-11T00:43:21.166Z,44.70
2018-11-11T00:45:49.755Z,42.17
2018-11-11T00:48:18.023Z,49.50
2018-11-11T00:50:46.582Z,43.08
2018-11-11T00:53:18.848Z,51.33
2018-11-11T00:55:48.159Z,45.30
2018-11-11T00:58:16.592Z,48.13
2018-11-11T01:00:45.142Z,49.83
2018-11-11T01:03:13.497Z,49.97
2018-11-11T01:05:41.812Z,47.80
2018-11-11T01:08:10.410Z,49.87
2018-11-11T01:10:38.958Z,40.23
2018-11-11T01:13:07.270Z,47.07
2018-11-11T01:15:35.577Z,46.63
2018-11-11T01:18:04.245Z,39.20
2018-11-11T01:20:32.526Z,44.03
2018-11-11T01:23:00.826Z,42.87
2018-11-11T01:25:29.403Z,43.45
2018-11-11T01:27:57.959Z,42.10
2018-11-11T01:30:26.532Z,41.63
2018-11-11T01:32:54.819Z,44.23
2018-11-11T01:35:23.411Z,41.07
2018-11-11T01:37:51.871Z,44.93
2018-11-11T01:40:20.148Z,48.50
2018-11-11T01:42:48.476Z,40.53
2018-11-11T01:45:19.255Z,49.33
2018-11-11T01:47:48.913Z,46.08
2018-11-11T01:50:17.523Z,49.73
2018-11-11T01:52:45.988Z,43.27
2018-11-11T01:55:14.771Z,44.40
2018-11-11T01:57:43.427Z,44.15
2018-11-11T02:00:14.193Z,44.40
2018-11-11T02:02:42.954Z,40.37
2018-11-11T02:05:12.365Z,46.75
2018-11-11T02:07:42.024Z,44.15
2018-11-11T02:10:10.852Z,44.47
2018-11-11T02:12:40.936Z,37.17
2018-11-11T02:15:11.271Z,45.40
2018-11-11T02:17:40.213Z,44.53
2018-11-11T02:20:11.727Z,41.33
2018-11-11T02:22:40.017Z,39.17
2018-11-11T02:25:09.449Z,43.02
2018-11-11T02:27:37.755Z,36.73
2018-11-11T02:30:08.365Z,36.95
2018-11-11T02:32:36.672Z,35.77
2018-11-11T02:35:05.580Z,28.77
2018-11-11T02:37:34.337Z,39.85
2018-11-11T02:40:03.645Z,33.30
2018-11-11T02:42:31.975Z,39.70
2018-11-11T02:45:00.714Z,32.13
2018-11-11T02:47:29.143Z,36.33
2018-11-11T02:49:57.677Z,40.20
2018-11-11T02:52:26.220Z,40.60
2018-11-11T02:54:54.772Z,29.00
2018-11-11T02:57:23.083Z,35.77
2018-11-11T02:59:51.623Z,29.45
2018-11-11T03:02:20.040Z,34.30
2018-11-11T03:04:48.911Z,27.77
2018-11-11T03:07:17.485Z,29.18
2018-11-11T03:09:46.052Z,29.20
2018-11-11T03:12:14.692Z,28.43
2018-11-11T03:14:43.171Z,26.03
2018-11-11T03:17:11.695Z,30.57
2018-11-11T03:19:40.464Z,27.80
2018-11-11T03:22:09.179Z,26.30
2018-11-11T03:24:37.730Z,25.57
2018-11-11T03:27:06.044Z,23.90
2018-11-11T03:29:34.949Z,30.20
2018-11-11T03:32:03.228Z,31.47
2018-11-11T03:34:31.865Z,34.07
2018-11-11T03:37:00.291Z,29.10
2018-11-11T03:39:28.590Z,28.33
2018-11-11T03:41:57.023Z,29.40
2018-11-11T03:44:25.300Z,28.03
2018-11-11T03:46:53.853Z,26.42
2018-11-11T03:49:22.168Z,26.23
2018-11-11T03:51:50.632Z,26.53
2018-11-11T03:54:19.237Z,31.75
2018-11-11T03:56:47.837Z,29.72
2018-11-11T03:59:16.227Z,39.67
2018-11-11T04:01:44.714Z,32.33
2018-11-11T04:04:13.206Z,31.63
2018-11-11T04:06:41.836Z,31.00
2018-11-11T04:09:11.506Z,29.77
2018-11-11T04:11:40.455Z,27.23
2018-11-11T04:14:09.589Z,31.05
2018-11-11T04:16:37.983Z,34.13
2018-11-11T04:19:07.217Z,29.00
2018-11-11T04:21:36.174Z,29.20
2018-11-11T04:24:04.885Z,31.70
2018-11-11T04:26:33.171Z,39.47
2018-11-11T04:29:02.003Z,30.23
2018-11-11T04:31:30.562Z,34.58
2018-11-11T04:33:58.991Z,35.07
2018-11-11T04:36:27.262Z,35.60
2018-11-11T04:38:55.873Z,28.62
2018-11-11T04:46:23.515Z,30.55
2018-11-11T04:48:51.920Z,30.93
2018-11-11T04:51:20.388Z,29.77
2018-11-11T04:53:48.984Z,31.37
2018-11-11T04:56:17.792Z,31.77
2018-11-11T04:58:46.631Z,31.07
2018-11-11T05:01:15.258Z,31.50
2018-11-11T05:03:44.031Z,35.27
2018-11-11T05:06:12.612Z,35.17
2018-11-11T05:08:41.180Z,33.73
2018-11-11T05:11:09.721Z,33.90
2018-11-11T05:13:37.994Z,32.87
2018-11-11T05:16:06.798Z,35.75
2018-11-11T05:18:35.056Z,39.80
2018-11-11T05:21:03.655Z,33.90
2018-11-11T05:23:32.348Z,39.17
2018-11-11T05:26:00.804Z,34.67
2018-11-11T05:28:29.423Z,39.87
2018-11-11T05:30:58.320Z,40.58
2018-11-11T05:33:26.827Z,42.83
2018-11-11T05:35:55.215Z,47.30
2018-11-11T05:38:23.991Z,45.70
2018-11-11T05:40:52.534Z,36.10
2018-11-11T05:43:21.318Z,40.60
2018-11-11T05:45:49.611Z,41.43
2018-11-11T05:48:18.512Z,37.03
2018-11-11T05:50:47.137Z,37.20
2018-11-11T05:53:15.435Z,40.40
2018-11-11T05:55:43.707Z,33.50
2018-11-11T05:58:12.160Z,40.03
2018-11-11T06:00:40.449Z,36.37
2018-11-11T06:03:08.723Z,32.23
2018-11-11T06:05:37.309Z,27.47
2018-11-11T06:08:05.902Z,27.70
2018-11-11T06:10:34.221Z,25.40
2018-11-11T06:13:02.495Z,28.90
2018-11-11T06:15:30.947Z,28.87
2018-11-11T06:17:59.502Z,29.82
2018-11-11T06:20:27.813Z,25.77
2018-11-11T06:22:56.133Z,29.13
2018-11-11T06:25:24.731Z,26.60
2018-11-11T06:27:53.271Z,23.18
2018-11-11T06:30:21.579Z,21.07
2018-11-11T06:32:50.151Z,29.17
2018-11-11T06:35:18.560Z,27.20
2018-11-11T06:37:46.859Z,28.00
2018-11-11T06:40:15.584Z,26.53
2018-11-11T06:42:43.884Z,29.20
2018-11-11T06:45:14.413Z,40.45
2018-11-11T06:47:44.088Z,36.35
2018-11-11T06:50:13.991Z,34.70
2018-11-11T06:52:43.094Z,72.27
2018-11-11T06:55:11.915Z,58.67
2018-11-11T06:57:40.701Z,45.23
2018-11-11T07:00:10.999Z,37.63
2018-11-11T07:02:40.544Z,69.37
2018-11-11T07:05:09.716Z,37.33
2018-11-11T07:07:38.325Z,43.47
2018-11-11T07:10:07.377Z,86.35
2018-11-11T07:12:35.943Z,45.20
2018-11-11T07:15:05.334Z,43.40
2018-11-11T07:17:33.905Z,26.63
2018-11-11T07:20:02.807Z,22.65
2018-11-11T07:22:31.108Z,19.70
2018-11-11T07:24:59.432Z,20.73
2018-11-11T07:27:28.601Z,16.50
2018-11-11T07:29:57.843Z,16.13
2018-11-11T07:32:26.346Z,18.20
2018-11-11T07:34:54.635Z,15.47
2018-11-11T07:37:23.280Z,17.55
2018-11-11T07:39:51.624Z,13.50
2018-11-11T07:42:20.050Z,15.27
2018-11-11T07:44:48.501Z,13.83
2018-11-11T07:47:17.085Z,9.80
2018-11-11T07:49:45.899Z,8.60
2018-11-11T07:52:14.174Z,8.33
2018-11-11T07:54:42.727Z,6.93
2018-11-11T07:57:11.008Z,7.83
2018-11-11T07:59:39.281Z,8.50
2018-11-11T08:02:08.132Z,7.50
2018-11-11T08:04:36.795Z,10.93
2018-11-11T08:07:05.796Z,7.60
2018-11-11T08:09:34.208Z,8.80
2018-11-11T08:12:04.832Z,9.50
2018-11-11T08:14:33.127Z,9.03
2018-11-11T08:17:01.914Z,9.50
2018-11-11T08:24:27.432Z,9.17
2018-11-11T08:27:07.440Z,9.04
2018-11-11T08:29:54.494Z,8.67
2018-11-11T08:32:26.020Z,10.10
2018-11-11T08:34:54.440Z,6.37
2018-11-11T08:37:29.277Z,6.70
2018-11-11T08:39:57.549Z,7.70
2018-11-11T08:42:26.096Z,8.07
2018-11-11T08:44:54.701Z,8.63
2018-11-11T08:47:23.175Z,10.33
2018-11-11T08:49:52.130Z,6.40
2018-11-11T08:52:20.512Z,8.60
2018-11-11T08:54:49.193Z,17.42
2018-11-11T08:57:17.514Z,7.90
2018-11-11T08:59:46.079Z,11.15
2018-11-11T09:02:14.636Z,9.87
2018-11-11T09:04:43.826Z,12.30
2018-11-11T09:07:12.727Z,8.33
2018-11-11T09:09:41.417Z,9.60
2018-11-11T09:12:09.778Z,10.73
2018-11-11T09:14:38.361Z,13.40
2018-11-11T09:17:06.706Z,8.70
2018-11-11T09:19:35.193Z,9.60
2018-11-11T09:22:03.741Z,16.80
2018-11-11T09:24:32.444Z,10.80
2018-11-11T09:27:00.725Z,11.23
2018-11-11T09:29:30.376Z,11.15
2018-11-11T09:31:58.985Z,7.47
2018-11-11T09:34:27.268Z,11.40
2018-11-11T09:36:56.324Z,7.93
2018-11-11T09:39:24.887Z,9.05
2018-11-11T09:41:53.143Z,7.20
2018-11-11T09:44:21.424Z,9.00
2018-11-11T09:46:50.686Z,13.30
2018-11-11T09:49:19.421Z,12.37
2018-11-11T09:51:47.780Z,12.17
2018-11-11T09:54:16.451Z,20.60
2018-11-11T09:56:44.892Z,18.00
2018-11-11T09:59:13.875Z,8.45
2018-11-11T10:01:43.577Z,10.93
2018-11-11T10:04:18.760Z,12.20
2018-11-11T10:06:52.452Z,11.65
2018-11-11T10:11:29.108Z,11.50
2018-11-11T10:14:03.496Z,13.40
2018-11-11T10:16:37.080Z,8.60
2018-11-11T10:19:09.849Z,6.70
2018-11-11T10:21:46.942Z,6.93
2018-11-11T10:24:27.811Z,7.53
2018-11-11T10:27:02.057Z,7.33
2018-11-11T10:29:36.358Z,11.43
2018-11-11T10:32:20.060Z,9.30
2018-11-11T10:34:56.970Z,9.23
2018-11-11T10:37:29.633Z,6.67
2018-11-11T10:41:04.281Z,10.77
2018-11-11T10:44:03.898Z,12.87
2018-11-11T10:46:37.247Z,8.53
2018-11-11T10:49:07.227Z,9.57
2018-11-11T10:51:36.047Z,12.23
2018-11-11T10:54:04.825Z,9.97
2018-11-11T10:56:33.332Z,10.77
2018-11-11T10:59:01.628Z,9.40
2018-11-11T11:01:35.421Z,10.80
2018-11-11T11:04:04.062Z,12.83
2018-11-11T11:06:37.702Z,13.07
2018-11-11T11:09:13.384Z,10.40
2018-11-11T11:11:42.668Z,11.70
2018-11-11T11:14:11.832Z,8.50
2018-11-11T11:16:40.177Z,12.97
2018-11-11T11:19:08.470Z,9.97
2018-11-11T11:21:36.946Z,9.40
2018-11-11T11:24:05.408Z,9.80
2018-11-11T11:26:33.700Z,9.37
2018-11-11T11:29:02.318Z,12.65
2018-11-11T11:31:31.184Z,8.93
2018-11-11T11:34:00.053Z,9.77
2018-11-11T11:36:29.273Z,10.60
2018-11-11T11:38:58.007Z,11.90
2018-11-11T11:41:26.980Z,10.78
2018-11-11T11:43:55.728Z,11.20
2018-11-11T11:46:24.021Z,12.33
2018-11-11T11:48:52.542Z,11.13
2018-11-11T11:51:21.007Z,9.23
2018-11-11T11:53:49.295Z,12.97
2018-11-11T11:56:17.727Z,9.93
2018-11-11T11:58:46.016Z,12.63
2018-11-11T12:01:14.628Z,9.90
2018-11-11T12:03:43.200Z,10.05
2018-11-11T12:06:11.496Z,10.33
2018-11-11T12:08:40.170Z,10.35
2018-11-11T12:11:08.923Z,8.70
2018-11-11T12:13:37.252Z,9.23
2018-11-11T12:16:05.960Z,8.93
2018-11-11T12:18:34.517Z,8.57
2018-11-11T12:21:03.816Z,10.70
2018-11-11T12:23:32.390Z,8.30
2018-11-11T12:26:01.143Z,8.68
2018-11-11T12:28:29.705Z,10.60
2018-11-11T12:30:58.367Z,9.90
2018-11-11T12:33:27.051Z,10.65
2018-11-11T12:36:30.800Z,11.20
2018-11-11T12:38:59.157Z,9.73
2018-11-11T12:41:27.934Z,8.80
2018-11-11T12:43:56.216Z,8.27
2018-11-11T12:46:25.124Z,8.68
2018-11-11T12:48:53.422Z,11.87
2018-11-11T12:56:26.556Z,8.80
2018-11-11T12:58:55.270Z,9.27
2018-11-11T13:01:24.057Z,8.90
2018-11-11T13:03:52.675Z,8.08
2018-11-11T13:06:21.242Z,10.03
2018-11-11T13:08:50.248Z,10.47
2018-11-11T13:11:18.614Z,9.57
2018-11-11T13:13:47.117Z,8.93
2018-11-11T13:16:15.841Z,9.53
2018-11-11T13:18:44.353Z,10.70
2018-11-11T13:21:12.846Z,8.87
2018-11-11T13:23:41.130Z,9.80
2018-11-11T13:26:10.071Z,7.53
2018-11-11T13:28:38.506Z,10.87
2018-11-11T13:31:07.394Z,10.33
2018-11-11T13:33:35.708Z,11.97
2018-11-11T13:36:04.123Z,9.50
2018-11-11T13:38:32.662Z,9.97
2018-11-11T13:41:07.861Z,9.70
2018-11-11T13:44:08.609Z,12.02
2018-11-11T13:46:37.543Z,12.53
2018-11-11T13:49:06.428Z,12.50
2018-11-11T13:51:35.941Z,10.87
2018-11-11T13:54:04.777Z,14.20
2018-11-11T13:56:33.391Z,9.87
2018-11-11T13:59:01.684Z,10.77
2018-11-11T14:01:30.287Z,10.70
2018-11-11T14:03:59.458Z,7.57
2018-11-11T14:06:28.031Z,10.13
2018-11-11T14:08:56.417Z,8.00
2018-11-11T14:11:25.035Z,9.73
2018-11-11T14:13:53.583Z,9.60
2018-11-11T14:16:22.516Z,8.80
2018-11-11T14:18:51.321Z,13.90
2018-11-11T14:21:19.605Z,13.00
2018-11-11T14:23:48.115Z,10.03
2018-11-11T14:26:16.863Z,10.50
2018-11-11T14:28:45.508Z,9.47
2018-11-11T14:31:14.572Z,8.85
2018-11-11T14:33:42.842Z,9.13
2018-11-11T14:36:18.165Z,8.67
2018-11-11T14:38:46.511Z,8.00
2018-11-11T14:41:15.065Z,13.03
2018-11-11T14:43:43.393Z,12.60
2018-11-11T14:46:11.871Z,9.87
2018-11-11T14:48:40.261Z,8.83
2018-11-11T14:51:08.854Z,8.77
2018-11-11T14:53:37.369Z,9.33
2018-11-11T14:56:06.219Z,11.10
2018-11-11T14:58:34.961Z,7.93
2018-11-11T15:01:03.552Z,8.53
2018-11-11T15:03:32.120Z,12.68
2018-11-11T15:06:00.412Z,7.40
2018-11-11T15:08:28.692Z,6.67
2018-11-11T15:10:56.989Z,9.03
2018-11-11T15:13:25.273Z,7.10
2018-11-11T15:15:53.845Z,9.10
2018-11-11T15:18:22.573Z,8.78
2018-11-11T15:20:51.365Z,8.70
2018-11-11T15:23:19.620Z,8.60
2018-11-11T15:25:48.176Z,7.40
2018-11-11T15:28:16.782Z,7.95
2018-11-11T15:30:56.215Z,5.90
2018-11-11T15:34:02.241Z,8.60
2018-11-11T15:39:47.202Z,7.80
2018-11-11T15:42:36.377Z,6.30
2018-11-11T15:45:35.806Z,6.90
2018-11-11T15:48:20.223Z,8.00
2018-11-11T15:50:52.830Z,10.37
2018-11-11T15:53:21.680Z,9.00
2018-11-11T15:55:50.199Z,8.43
2018-11-11T15:58:18.520Z,9.73
2018-11-11T16:00:47.466Z,11.13
2018-11-11T16:03:15.864Z,8.87
2018-11-11T16:05:45.224Z,11.83
2018-11-11T16:08:13.487Z,9.00
2018-11-11T16:10:42.356Z,7.78
2018-11-11T16:13:10.897Z,7.93
2018-11-11T16:15:40.605Z,17.90
2018-11-11T16:18:10.382Z,11.27
2018-11-11T16:20:39.324Z,12.28
2018-11-11T16:23:08.918Z,9.53
2018-11-11T16:25:41.634Z,11.10
2018-11-11T16:28:10.263Z,13.47
2018-11-11T16:30:39.152Z,14.80
2018-11-11T16:33:08.566Z,11.67
2018-11-11T16:35:36.932Z,16.03
2018-11-11T16:38:05.898Z,11.63
2018-11-11T16:40:36.113Z,13.28
2018-11-11T16:43:04.788Z,13.90
2018-11-11T16:45:34.458Z,15.10
2018-11-11T16:48:03.211Z,12.25
2018-11-11T16:50:33.081Z,18.13
2018-11-11T16:53:03.094Z,11.47
2018-11-11T16:55:32.740Z,17.15
2018-11-11T16:58:01.396Z,16.37
2018-11-11T17:00:31.442Z,15.65
2018-11-11T17:03:01.047Z,15.23
2018-11-11T17:05:31.260Z,15.88
2018-11-11T17:08:00.186Z,19.00
2018-11-11T17:10:30.968Z,15.27
2018-11-11T17:13:00.831Z,14.63
2018-11-11T17:15:30.471Z,18.87
2018-11-11T17:17:58.785Z,16.83
2018-11-11T17:20:27.423Z,15.80
2018-11-11T17:22:58.144Z,20.48
2018-11-11T17:25:27.389Z,19.77
2018-11-11T17:27:55.898Z,21.13
2018-11-11T17:30:25.703Z,19.50
2018-11-11T17:32:54.923Z,19.63
2018-11-11T17:35:23.358Z,17.07
2018-11-11T17:37:52.078Z,19.23
2018-11-11T17:40:22.292Z,17.90
2018-11-11T17:42:52.064Z,23.42
2018-11-11T17:45:20.542Z,28.50
2018-11-11T17:47:49.343Z,25.73
2018-11-11T17:50:20.322Z,23.23
2018-11-11T17:52:49.299Z,23.22
2018-11-11T17:55:18.857Z,27.43
2018-11-11T17:57:47.358Z,23.20
2018-11-11T18:00:17.177Z,25.03
2018-11-11T18:02:46.297Z,24.45
2018-11-11T18:05:15.747Z,24.20
2018-11-11T18:07:44.308Z,27.60
2018-11-11T18:10:16.296Z,25.00
2018-11-11T18:12:45.068Z,24.57
2018-11-11T18:15:15.117Z,30.93
2018-11-11T18:17:44.117Z,30.60
2018-11-11T18:20:23.021Z,32.60
2018-11-11T18:22:52.523Z,38.07
2018-11-11T18:25:21.493Z,37.33
2018-11-11T18:27:50.324Z,40.00
2018-11-11T18:30:21.263Z,32.70
2018-11-11T18:32:49.574Z,35.97
2018-11-11T18:35:19.114Z,42.37
2018-11-11T18:37:47.676Z,35.00
2018-11-11T18:40:18.312Z,38.73
2018-11-11T18:42:46.603Z,44.85
2018-11-11T18:45:17.254Z,45.10
2018-11-11T18:47:46.646Z,40.20
2018-11-11T18:50:20.235Z,48.80
2018-11-11T18:52:48.794Z,44.67
2018-11-11T18:55:17.136Z,51.70
2018-11-11T18:57:45.886Z,50.23
2018-11-11T19:00:18.637Z,47.10
2018-11-11T19:02:48.389Z,43.37
2018-11-11T19:05:17.560Z,51.73
2018-11-11T19:07:46.130Z,56.83
2018-11-11T19:10:16.534Z,46.23
2018-11-11T19:12:45.870Z,52.40
2018-11-11T19:15:15.679Z,53.20
2018-11-11T19:17:45.024Z,41.83
2018-11-11T19:20:14.783Z,47.13
2018-11-11T19:22:43.524Z,48.28
2018-11-11T19:25:13.757Z,45.40
2018-11-11T19:27:43.477Z,51.40
2018-11-11T19:30:13.162Z,49.03
2018-11-11T19:32:42.535Z,47.07
2018-11-11T19:35:11.723Z,52.67
2018-11-11T19:37:40.879Z,47.60
2018-11-11T19:40:12.266Z,47.00
2018-11-11T19:42:41.058Z,48.73
2018-11-11T19:45:11.089Z,50.08
2018-11-11T19:47:39.855Z,49.20
2018-11-11T19:50:09.751Z,53.53
2018-11-11T19:52:38.828Z,47.23
2018-11-11T19:55:08.468Z,52.30
2018-11-11T19:57:36.797Z,52.33
2018-11-11T20:00:08.017Z,55.15
2018-11-11T20:02:36.383Z,49.57
2018-11-11T20:05:06.377Z,51.73
2018-11-11T20:07:35.089Z,52.93
2018-11-11T20:10:03.741Z,55.43
2018-11-11T20:12:32.348Z,47.27
2018-11-11T20:15:00.656Z,45.40
2018-11-11T20:17:29.133Z,51.17
2018-11-11T20:19:58.004Z,44.20
2018-11-11T20:22:26.327Z,45.87
2018-11-11T20:24:54.920Z,50.17
2018-11-11T20:27:24.241Z,57.93
2018-11-11T20:29:52.942Z,53.77
2018-11-11T20:32:21.434Z,52.67
2018-11-11T20:34:49.780Z,48.83
2018-11-11T20:37:18.771Z,55.90
2018-11-11T20:39:47.877Z,47.83
2018-11-11T20:42:16.785Z,55.83
2018-11-11T20:44:45.407Z,45.65
2018-11-11T20:47:14.016Z,50.63
2018-11-11T20:49:42.434Z,48.80
2018-11-11T20:52:10.900Z,46.50
2018-11-11T20:54:39.421Z,48.13
2018-11-11T20:57:07.710Z,47.33
2018-11-11T20:59:36.304Z,47.93
2018-11-11T21:02:05.041Z,45.40
2018-11-11T21:04:33.555Z,40.77
2018-11-11T21:07:01.841Z,48.60
2018-11-11T21:09:30.136Z,45.33
2018-11-11T21:11:58.520Z,38.90
2018-11-11T21:14:27.129Z,34.63
2018-11-11T21:16:55.476Z,45.03
2018-11-11T21:19:23.812Z,43.50
2018-11-11T21:21:52.723Z,37.67
2018-11-11T21:24:21.295Z,37.98
2018-11-11T21:26:50.557Z,41.80
2018-11-11T21:29:18.990Z,42.20
2018-11-11T21:31:47.666Z,39.33
2018-11-11T21:34:19.164Z,45.00
2018-11-11T21:36:47.753Z,50.38
2018-11-11T21:39:16.045Z,42.10
2018-11-11T21:41:44.538Z,41.70
2018-11-11T21:44:12.844Z,36.40
2018-11-11T21:46:41.324Z,47.90
2018-11-11T21:49:10.100Z,55.33
2018-11-11T21:51:38.662Z,49.45
2018-11-11T21:54:07.329Z,50.43
2018-11-11T21:56:36.084Z,48.60
2018-11-11T21:59:05.029Z,47.10
2018-11-11T22:01:33.388Z,61.60
2018-11-11T22:04:01.968Z,50.33
2018-11-11T22:06:30.488Z,51.30
2018-11-11T22:08:59.294Z,47.97
2018-11-11T22:11:27.792Z,47.80
2018-11-11T22:13:56.338Z,48.57
2018-11-11T22:16:24.868Z,53.00
2018-11-11T22:18:53.781Z,47.95
2018-11-11T22:21:22.188Z,53.17
2018-11-11T22:23:50.470Z,50.43
2018-11-11T22:26:19.342Z,51.70
2018-11-11T22:28:48.149Z,45.85
2018-11-11T22:31:17.362Z,46.60
2018-11-11T22:33:45.677Z,53.70
2018-11-11T22:36:14.263Z,55.50
2018-11-11T22:38:42.594Z,53.60
2018-11-11T22:41:10.884Z,55.27
2018-11-11T22:43:39.276Z,48.47
2018-11-11T22:46:08.229Z,50.85
2018-11-11T22:48:37.124Z,59.83
2018-11-11T22:51:06.363Z,43.05
2018-11-11T22:53:34.891Z,42.40
2018-11-11T22:56:03.439Z,47.58
2018-11-11T22:58:31.804Z,46.00
2018-11-11T23:01:05.683Z,42.40
2018-11-11T23:03:34.193Z,41.80
2018-11-11T23:06:02.440Z,43.63
2018-11-11T23:08:30.711Z,50.30
2018-11-11T23:10:58.995Z,39.20
2018-11-11T23:13:27.256Z,41.13
2018-11-11T23:15:55.909Z,39.63
2018-11-11T23:18:24.323Z,43.73
2018-11-11T23:20:52.783Z,39.20
2018-11-11T23:23:21.284Z,44.03
2018-11-11T23:25:49.807Z,50.10
2018-11-11T23:28:18.150Z,42.80
2018-11-11T23:30:46.904Z,44.97
2018-11-11T23:33:15.176Z,44.93
2018-11-11T23:35:43.660Z,53.77
2018-11-11T23:38:12.099Z,48.80
2018-11-11T23:40:40.651Z,49.43
2018-11-11T23:43:09.196Z,42.67
2018-11-11T23:45:37.736Z,44.10
2018-11-11T23:48:06.292Z,49.70
2018-11-11T23:50:34.876Z,47.63
2018-11-11T23:53:03.772Z,35.80
2018-11-11T23:55:32.111Z,41.20
2018-11-11T23:58:01.340Z,40.73
